Airfield :
LOGIN :

Register | Disclaimer

   EN    FR    IT 

 










Legend :    VFR   Marginal VFR   IFR   Intensive IFR   Very Intensive IFR
Visi :
Ceiling :
>= 8 km
>= 3000ft
5 to 8 km
1000 to 3000 ft
1500m to 5 km
500 to 1000 ft
800 to 1500m
200 to 500 ft
< 800m
< 200 ft
Symbols :   Thunderstorms  Fog  Heavy snow  Heavy precipitations  Wind > 20 kt
SIGMETs :     Misc.  Thunderstorms  Icing  Turbulence  Mountain Waves  Volcanic Ashes






- Airport Elevation : 485 ft
- IATA code : QSA


LELL - Sabadell

CURRENT METAR :
  • 200430Z AUTO 29004KT CAVOK 02/01 Q1026

EXPIRED METARs :
  • 200400Z AUTO 29004KT CAVOK 02/01 Q1026
  • 200330Z AUTO 29005KT CAVOK 03/01 Q1026
  • 200300Z AUTO 29004KT CAVOK 03/02 Q1026
  • 200230Z AUTO 30003KT CAVOK 03/02 Q1027
  • 200200Z AUTO 28004KT 240V300 CAVOK 03/02 Q1027

TAF TAF LELL
Valid from the 20 at 03:00 until the 21 at 03:00 UTC


200200Z 2003/2103 33006KT 9999 FEW030 TX17/2013Z TN04/2006Z
BECMG 2008/2010 24007KT
BECMG 2017/2019 33006KT



MET'MAP, your aeronautical weather chart ! - Copyright ORBIFLY December 2007 - Disclaimer

ORBIFLY MET'MAP TEAM :

Programming & Development : Alexandra Zaïnal
Concept & original design : Baudouin d'Aumeries
Assistance for programming : Marc-Olivier Méhu
Technical & hardware support : Manuel Goepfert

Contact : metmap@orbifly.com




SOURCES & CREDITS :

   NOAA